Time;durP1;ratioP1;P1;durP2;ratioP2;P2;SDS_P1;SDS_P2;PMS_P1;PMS_P2;Temp;Humidity;BMP_temperature;BMP_pressure;BME280_temperature;BME280_humidity;BME280_pressure;Samples;Min_cycle;Max_cycle;Signal;HPM_P1;HPM_P2
2022/05/06 00:00:52;;;;;;;;;11.33;9.67;;;;;16.72;50.16;102206.25;5081805;27;46055;-84
2022/05/06 00:03:17;;;;;;;;;13.00;11.67;;;;;16.75;49.86;102212.34;5100287;27;45343;-83
2022/05/06 00:05:42;;;;;;;;;13.00;11.33;;;;;16.27;49.97;102134.72;5100170;27;45451;-83
2022/05/06 00:08:09;;;;;;;;;12.00;10.67;;;;;16.50;50.56;102185.69;5100193;27;45528;-83
2022/05/06 00:10:34;;;;;;;;;13.67;12.00;;;;;16.93;50.21;102252.88;5081069;27;45826;-83
2022/05/06 00:12:59;;;;;;;;;14.00;11.33;;;;;16.90;50.36;102255.72;5081725;27;45491;-84
2022/05/06 00:15:25;;;;;;;;;15.33;12.00;;;;;16.63;50.73;102213.78;5081789;27;45254;-83
2022/05/06 00:17:50;;;;;;;;;12.67;10.67;;;;;16.58;50.54;102210.44;5099842;27;46332;-83
2022/05/06 00:20:15;;;;;;;;;14.67;14.00;;;;;16.27;50.67;102184.03;5099692;27;45375;-83
2022/05/06 00:22:41;;;;;;;;;8.67;8.67;;;;;16.78;50.84;102244.53;5099934;27;45746;-83
2022/05/06 00:25:06;;;;;;;;;9.67;9.33;;;;;16.41;50.87;102187.00;5081482;27;45498;-84
2022/05/06 00:27:32;;;;;;;;;12.33;12.33;;;;;16.70;50.55;102246.69;5099556;27;45540;-83
2022/05/06 00:29:57;;;;;;;;;12.00;11.67;;;;;15.99;50.81;102119.81;5081214;27;45863;-84
2022/05/06 00:32:22;;;;;;;;;11.67;11.33;;;;;16.21;51.07;102139.44;5099618;27;45454;-83
2022/05/06 00:34:48;;;;;;;;;12.67;11.67;;;;;16.67;51.22;102225.31;5100118;27;45408;-84
2022/05/06 00:37:13;;;;;;;;;9.33;8.00;;;;;16.56;50.87;102209.63;5081019;27;50649;-83
2022/05/06 00:39:38;;;;;;;;;8.33;8.33;;;;;16.82;51.13;102253.38;5099090;27;45468;-84
2022/05/06 00:42:04;;;;;;;;;15.67;11.33;;;;;16.49;51.25;102208.16;5081556;27;45829;-84
2022/05/06 00:44:29;;;;;;;;;12.00;10.33;;;;;16.20;51.08;102159.22;5099707;27;45624;-84
2022/05/06 00:46:58;;;;;;;;;10.00;10.00;;;;;16.24;51.21;102158.13;5099327;27;46527;-84
2022/05/06 00:49:24;;;;;;;;;11.33;9.67;;;;;16.50;51.06;102211.72;5099302;27;45825;-84
2022/05/06 00:51:52;;;;;;;;;15.33;11.33;;;;;16.29;50.93;102166.00;5099473;27;45354;-84
2022/05/06 00:54:21;;;;;;;;;11.00;10.00;;;;;15.94;50.97;102105.72;5098953;27;45312;-84
2022/05/06 00:56:47;;;;;;;;;12.67;9.33;;;;;16.71;51.12;102231.41;5099093;27;45605;-83
2022/05/06 00:59:13;;;;;;;;;10.33;9.33;;;;;16.75;51.33;102238.41;5099216;27;45384;-84
2022/05/06 01:01:38;;;;;;;;;12.00;12.00;;;;;16.35;51.15;102175.63;5080773;27;45503;-84
2022/05/06 01:04:06;;;;;;;;;11.00;10.00;;;;;16.71;51.26;102240.38;5099488;27;45527;-84
2022/05/06 01:06:33;;;;;;;;;9.67;9.00;;;;;16.06;51.22;102129.38;5080043;27;47971;-84
2022/05/06 01:08:59;;;;;;;;;13.33;12.33;;;;;16.20;51.24;102148.47;5099133;27;45438;-84
2022/05/06 01:11:26;;;;;;;;;13.33;13.33;;;;;16.70;51.40;102252.09;5080647;27;45741;-83
2022/05/06 01:13:55;;;;;;;;;12.67;11.33;;;;;16.57;51.35;102229.34;5081168;27;45482;-84
2022/05/06 01:16:21;;;;;;;;;14.00;11.67;;;;;16.14;51.78;102164.00;5098419;27;45506;-84
2022/05/06 01:18:47;;;;;;;;;15.00;12.00;;;;;15.88;51.61;102125.69;5099303;27;45507;-83
2022/05/06 01:21:22;;;;;;;;;15.33;13.67;;;;;16.07;51.67;102162.53;5098763;27;45368;-84
2022/05/06 01:23:47;;;;;;;;;19.00;15.00;;;;;16.26;51.88;102190.34;5080799;27;45734;-84
2022/05/06 01:26:13;;;;;;;;;16.67;15.33;;;;;16.06;51.62;102167.03;5098845;27;46476;-84
2022/05/06 01:28:41;;;;;;;;;14.00;12.00;;;;;16.47;51.89;102239.66;5080190;27;45960;-84
2022/05/06 01:31:08;;;;;;;;;16.00;14.33;;;;;16.51;51.84;102252.03;5080555;27;45396;-84
2022/05/06 01:33:36;;;;;;;;;18.00;13.33;;;;;16.46;52.21;102246.88;5099007;27;45536;-83
2022/05/06 01:36:04;;;;;;;;;17.67;15.00;;;;;16.44;52.21;102247.88;5098568;27;45649;-84
2022/05/06 01:38:49;;;;;;;;;17.67;16.33;;;;;16.44;52.02;102240.66;5098418;27;45515;-83
2022/05/06 01:41:23;;;;;;;;;14.67;12.00;;;;;16.01;52.18;102169.94;5098854;27;45523;-83
2022/05/06 01:44:16;;;;;;;;;17.67;14.33;;;;;15.77;52.34;102131.53;5098954;27;45349;-83
2022/05/06 01:46:42;;;;;;;;;14.67;13.67;;;;;15.82;52.33;102153.69;5077242;27;46464;-83
2022/05/06 01:49:10;;;;;;;;;17.00;13.00;;;;;15.82;52.19;102155.53;5098535;27;45491;-83
2022/05/06 01:51:38;;;;;;;;;11.67;10.00;;;;;15.74;52.67;102153.16;5097935;27;45306;-84
2022/05/06 01:54:04;;;;;;;;;10.67;10.67;;;;;16.02;52.35;102206.63;5098705;27;45507;-83
2022/05/06 01:56:29;;;;;;;;;20.67;16.00;;;;;15.56;52.84;102135.97;5097820;27;46663;-83
2022/05/06 01:58:54;;;;;;;;;14.00;12.67;;;;;16.16;52.73;102242.81;5097674;27;45487;-83
2022/05/06 02:01:20;;;;;;;;;17.33;15.67;;;;;16.12;52.94;102243.91;5098394;27;45795;-83
2022/05/06 02:06:29;;;;;;;;;18.00;16.67;;;;;15.69;53.08;102190.09;5097615;27;45785;-83
2022/05/06 02:08:54;;;;;;;;;21.33;18.33;;;;;15.45;53.01;102153.47;5098033;27;45417;-83
2022/05/06 02:11:20;;;;;;;;;18.33;14.67;;;;;15.46;53.25;102153.44;5098151;27;45346;-83
2022/05/06 02:13:46;;;;;;;;;16.67;16.00;;;;;15.25;53.15;102122.94;5098460;27;45344;-83
2022/05/06 02:16:11;;;;;;;;;18.00;16.00;;;;;15.85;53.27;102236.06;5098050;27;45490;-84
2022/05/06 02:18:37;;;;;;;;;21.00;16.00;;;;;16.00;53.44;102250.66;5097738;27;45519;-83
2022/05/06 02:21:02;;;;;;;;;17.67;15.67;;;;;15.74;53.40;102211.44;5098045;27;45522;-84
2022/05/06 02:23:28;;;;;;;;;18.00;17.33;;;;;15.97;53.56;102253.50;5079899;27;45524;-84
2022/05/06 02:25:54;;;;;;;;;19.00;17.00;;;;;15.96;53.43;102257.97;5097808;27;46093;-84
2022/05/06 02:28:20;;;;;;;;;21.00;17.00;;;;;15.71;53.27;102209.75;5097718;27;45771;-83
2022/05/06 02:33:31;;;;;;;;;17.67;16.67;;;;;15.19;53.46;102136.63;5097638;27;45396;-83
2022/05/06 02:35:57;;;;;;;;;15.67;15.33;;;;;15.83;53.48;102243.31;5097591;27;46134;-84
2022/05/06 02:38:24;;;;;;;;;19.00;16.00;;;;;15.53;53.82;102207.78;5097475;27;45497;-84
2022/05/06 02:40:49;;;;;;;;;19.33;16.00;;;;;15.32;53.61;102180.00;5097826;27;45428;-84
2022/05/06 02:43:15;;;;;;;;;21.00;16.00;;;;;15.35;53.78;102186.09;5097971;27;45465;-84
2022/05/06 02:45:41;;;;;;;;;22.00;18.00;;;;;15.27;53.84;102166.75;5097241;27;46427;-84
2022/05/06 02:48:07;;;;;;;;;19.00;19.00;;;;;14.83;54.01;102122.88;5097244;27;45510;-83
2022/05/06 02:50:32;;;;;;;;;18.33;17.00;;;;;15.29;54.09;102181.00;5097447;27;45450;-83
2022/05/06 02:52:58;;;;;;;;;18.33;16.33;;;;;15.13;54.18;102163.75;5098001;27;45482;-83
2022/05/06 02:55:23;;;;;;;;;18.33;17.67;;;;;15.03;54.18;102155.19;5097314;27;45393;-84
2022/05/06 02:57:50;;;;;;;;;22.67;21.33;;;;;15.66;53.77;102257.41;5080192;27;45338;-83
2022/05/06 03:00:15;;;;;;;;;18.33;18.33;;;;;15.48;54.45;102223.25;5077386;28;45313;-84
2022/05/06 03:02:41;;;;;;;;;21.33;16.67;;;;;15.10;54.05;102167.44;5076747;28;45338;-83
2022/05/06 03:05:07;;;;;;;;;22.33;19.00;;;;;15.65;54.04;102254.78;5076788;28;46258;-83
2022/05/06 03:07:33;;;;;;;;;17.67;17.67;;;;;15.63;54.52;102257.53;5076903;27;45257;-83
2022/05/06 03:09:58;;;;;;;;;22.00;18.67;;;;;14.96;54.46;102157.22;5077937;28;45393;-83
2022/05/06 03:12:26;;;;;;;;;17.67;15.00;;;;;14.70;54.27;102134.09;5080645;28;45387;-83
2022/05/06 03:14:52;;;;;;;;;18.00;18.00;;;;;14.63;53.95;102097.66;5080402;27;45421;-84
2022/05/06 03:17:18;;;;;;;;;14.00;12.67;;;;;15.48;54.02;102248.28;5061749;28;46035;-84
2022/05/06 03:19:43;;;;;;;;;15.00;15.00;;;;;15.53;54.31;102257.03;5080571;27;45345;-83
2022/05/06 03:22:08;;;;;;;;;17.67;16.67;;;;;15.15;54.36;102194.09;5080942;28;45355;-83
2022/05/06 03:24:34;;;;;;;;;22.33;18.00;;;;;15.17;54.60;102206.53;5061718;28;46451;-83
2022/05/06 03:26:59;;;;;;;;;21.00;18.67;;;;;15.23;54.64;102224.19;5080382;27;45444;-83
2022/05/06 03:29:25;;;;;;;;;17.00;16.67;;;;;14.85;54.46;102167.50;5080302;27;45302;-83
2022/05/06 03:31:52;;;;;;;;;16.67;15.67;;;;;14.54;55.10;102124.88;5061863;28;45349;-83
2022/05/06 03:34:19;;;;;;;;;22.33;20.00;;;;;14.72;54.67;102139.38;5080178;27;46036;-83
2022/05/06 03:36:45;;;;;;;;;18.33;18.00;;;;;15.13;54.42;102209.41;5080241;27;45389;-83
2022/05/06 03:39:11;;;;;;;;;24.00;20.67;;;;;14.72;54.81;102161.72;5061979;27;45476;-83
2022/05/06 03:41:36;;;;;;;;;20.00;18.00;;;;;14.80;54.88;102179.34;5080319;27;45488;-83
2022/05/06 03:44:02;;;;;;;;;20.33;18.00;;;;;14.82;55.23;102181.06;5080059;27;46422;-84
2022/05/06 03:46:27;;;;;;;;;17.67;17.67;;;;;14.30;54.73;102095.31;5079239;28;45452;-83
2022/05/06 03:48:52;;;;;;;;;21.33;18.33;;;;;15.31;54.81;102267.78;5080079;28;45488;-83
2022/05/06 03:51:20;;;;;;;;;23.67;20.33;;;;;14.78;55.02;102182.09;5080218;28;45384;-83
2022/05/06 03:53:47;;;;;;;;;26.33;16.00;;;;;15.28;54.57;102272.38;5079561;27;45556;-83
2022/05/06 03:56:12;;;;;;;;;26.00;23.33;;;;;15.09;55.11;102242.66;5061609;28;45309;-84
2022/05/06 03:58:37;;;;;;;;;16.67;15.00;;;;;15.06;55.00;102248.16;5079563;27;47057;-83
2022/05/06 04:01:04;;;;;;;;;22.33;18.67;;;;;15.02;55.06;102241.16;5061424;28;45331;-83
2022/05/06 04:03:31;;;;;;;;;19.00;16.33;;;;;14.67;55.18;102187.00;5061316;28;48015;-83
2022/05/06 04:05:57;;;;;;;;;23.00;18.67;;;;;14.23;54.87;102119.75;5079686;28;45453;-84
2022/05/06 04:08:22;;;;;;;;;22.67;18.00;;;;;14.45;55.38;102168.13;5079580;27;45387;-84
2022/05/06 04:10:48;;;;;;;;;19.33;16.33;;;;;15.10;55.35;102268.56;5080026;28;45417;-84
2022/05/06 04:13:13;;;;;;;;;18.00;16.33;;;;;14.24;55.44;102141.16;5079529;27;45286;-84
2022/05/06 04:15:38;;;;;;;;;21.33;19.67;;;;;14.48;55.25;102184.09;5079128;27;45422;-83
2022/05/06 04:18:04;;;;;;;;;20.33;19.67;;;;;14.38;55.69;102175.53;5079717;28;44821;-84
2022/05/06 04:23:29;;;;;;;;;21.00;21.00;;;;;14.75;55.47;102250.19;5079488;28;45382;-84
2022/05/06 04:25:55;;;;;;;;;20.67;18.00;;;;;14.00;55.68;102123.25;5079107;27;45396;-84
2022/05/06 04:28:21;;;;;;;;;18.33;18.00;;;;;14.27;55.68;102175.91;5079142;28;45322;-83
2022/05/06 04:30:46;;;;;;;;;19.00;18.67;;;;;14.01;55.52;102138.44;5061256;28;45263;-83
2022/05/06 04:33:11;;;;;;;;;17.67;17.33;;;;;14.89;55.49;102291.75;5079306;28;46452;-84
2022/05/06 04:35:37;;;;;;;;;20.33;19.00;;;;;14.60;55.84;102249.88;5078706;28;47309;-83
2022/05/06 04:38:02;;;;;;;;;18.67;18.33;;;;;14.81;55.76;102292.03;5079477;27;45424;-84
2022/05/06 04:40:28;;;;;;;;;18.00;16.33;;;;;14.83;55.92;102295.53;5079347;28;45434;-84
2022/05/06 04:42:53;;;;;;;;;20.33;17.33;;;;;14.17;55.61;102197.75;5079152;28;45422;-83
2022/05/06 04:45:18;;;;;;;;;21.33;19.33;;;;;14.18;55.86;102191.44;5060306;28;45820;-83
2022/05/06 04:47:44;;;;;;;;;22.67;17.67;;;;;13.98;56.00;102160.88;5079123;28;45309;-83
2022/05/06 04:50:09;;;;;;;;;18.33;18.33;;;;;14.43;56.17;102229.00;5079636;27;45955;-84
2022/05/06 04:52:35;;;;;;;;;21.33;20.33;;;;;14.85;55.74;102303.56;5078792;28;45397;-83
2022/05/06 04:55:00;;;;;;;;;21.67;21.00;;;;;14.13;55.71;102192.47;5078681;28;45457;-83
2022/05/06 04:57:26;;;;;;;;;17.00;15.00;;;;;13.87;56.05;102141.59;5092541;27;45342;-83
2022/05/06 04:59:51;;;;;;;;;19.00;18.00;;;;;13.52;55.91;102082.06;5099520;27;45391;-84
2022/05/06 05:02:17;;;;;;;;;19.00;17.67;;;;;14.22;56.24;102207.38;5099024;27;45384;-83
2022/05/06 05:04:43;;;;;;;;;20.67;20.67;;;;;14.08;55.91;102197.13;5080982;27;45328;-83
2022/05/06 05:07:09;;;;;;;;;20.67;18.33;;;;;14.44;56.02;102260.25;5099397;27;45528;-84
2022/05/06 05:09:35;;;;;;;;;17.67;17.67;;;;;14.36;56.20;102236.38;5099479;27;45508;-84
2022/05/06 05:12:00;;;;;;;;;12.00;10.33;;;;;14.61;56.11;102262.34;5080702;27;47187;-83
2022/05/06 05:14:25;;;;;;;;;22.67;20.33;;;;;14.20;56.12;102209.22;5098500;27;45423;-83
2022/05/06 05:16:50;;;;;;;;;22.00;19.00;;;;;14.51;56.18;102251.91;5099284;27;45577;-83
2022/05/06 05:19:17;;;;;;;;;23.33;19.67;;;;;14.62;56.36;102266.81;5099372;27;45571;-84
2022/05/06 05:21:42;;;;;;;;;17.67;17.67;;;;;14.56;56.56;102262.53;5099153;27;45384;-83
2022/05/06 05:24:08;;;;;;;;;21.33;19.33;;;;;14.14;56.48;102196.94;5098904;27;45392;-83
2022/05/06 05:26:34;;;;;;;;;21.33;17.00;;;;;14.49;56.58;102251.13;5098914;27;45551;-83
2022/05/06 05:29:00;;;;;;;;;26.00;23.00;;;;;14.92;56.35;102315.81;5080566;27;45536;-83
2022/05/06 05:31:25;;;;;;;;;22.33;18.00;;;;;14.17;56.53;102189.72;5098798;27;45504;-83
2022/05/06 05:33:52;;;;;;;;;19.33;19.33;;;;;14.23;56.34;102189.47;5097671;27;50433;-83
2022/05/06 05:36:18;;;;;;;;;26.00;20.33;;;;;14.99;56.57;102328.06;5098724;27;45245;-83
2022/05/06 05:38:43;;;;;;;;;30.33;26.33;;;;;14.08;56.38;102172.13;5099397;27;45477;-83
2022/05/06 05:41:09;;;;;;;;;23.00;18.00;;;;;14.67;56.48;102278.25;5098290;27;46282;-83
2022/05/06 05:49:04;;;;;;;;;21.67;21.67;;;;;15.04;56.12;102335.97;5098690;27;45486;-84
2022/05/06 05:51:29;;;;;;;;;18.00;16.00;;;;;14.10;56.10;102168.47;5079711;27;46796;-83
2022/05/06 05:53:55;;;;;;;;;19.00;17.00;;;;;15.09;56.00;102331.28;5098235;27;45528;-83
2022/05/06 05:56:20;;;;;;;;;17.67;16.00;;;;;15.04;56.22;102331.47;5079673;27;45577;-83
2022/05/06 05:58:46;;;;;;;;;25.33;21.33;;;;;14.99;56.02;102306.59;5098486;27;45455;-83
2022/05/06 06:01:11;;;;;;;;;19.67;18.33;;;;;14.74;55.67;102252.94;5098286;27;46494;-84
2022/05/06 06:03:37;;;;;;;;;18.67;16.67;;;;;14.49;56.01;102199.25;5098282;27;45322;-83
2022/05/06 06:06:03;;;;;;;;;16.33;15.67;;;;;14.65;56.01;102224.63;5079901;27;45472;-83
2022/05/06 06:08:28;;;;;;;;;22.00;18.67;;;;;15.27;56.00;102322.53;5080318;27;45577;-83
2022/05/06 06:10:54;;;;;;;;;18.00;16.33;;;;;14.63;55.67;102201.47;5098153;27;45547;-83
2022/05/06 06:13:19;;;;;;;;;27.00;24.67;;;;;14.72;55.71;102215.41;5097777;27;45452;-83
2022/05/06 06:15:45;;;;;;;;;21.33;21.33;;;;;14.81;55.64;102232.09;5098279;27;45465;-84
2022/05/06 06:18:10;;;;;;;;;26.00;19.33;;;;;14.99;55.82;102251.06;5098489;27;45428;-83
2022/05/06 06:20:37;;;;;;;;;19.33;16.00;;;;;15.38;55.82;102322.13;5098251;27;45856;-90
2022/05/06 06:23:03;;;;;;;;;18.00;18.00;;;;;14.97;55.86;102238.66;5098613;27;45346;-90
2022/05/06 06:25:28;;;;;;;;;26.33;19.67;;;;;15.28;55.61;102296.56;5079534;27;45444;-90
2022/05/06 06:27:54;;;;;;;;;19.33;19.33;;;;;15.01;55.76;102242.97;5080707;27;45526;-90
2022/05/06 06:30:19;;;;;;;;;17.67;16.67;;;;;14.96;55.56;102232.41;5098206;27;45392;-90
2022/05/06 06:32:44;;;;;;;;;12.67;10.67;;;;;14.84;55.96;102207.81;5098415;27;45472;-90
2022/05/06 06:35:10;;;;;;;;;20.33;17.67;;;;;15.12;55.87;102245.22;5080009;27;45394;-90
2022/05/06 06:37:38;;;;;;;;;23.33;19.00;;;;;14.99;55.92;102220.69;5080321;27;45326;-90
2022/05/06 06:40:04;;;;;;;;;22.00;19.33;;;;;15.17;55.78;102240.53;5080071;27;47258;-90
2022/05/06 06:42:30;;;;;;;;;18.33;18.00;;;;;14.88;55.49;102177.25;5097977;27;45328;-90
2022/05/06 06:44:58;;;;;;;;;24.67;18.67;;;;;15.19;55.03;102222.56;5097754;27;45418;-90
2022/05/06 06:47:23;;;;;;;;;15.67;15.33;;;;;14.88;55.09;102161.16;5098241;27;45305;-83
2022/05/06 06:49:48;;;;;;;;;29.67;22.67;;;;;15.91;55.35;102337.09;5079154;27;46400;-83
2022/05/06 06:52:14;;;;;;;;;21.33;19.00;;;;;15.24;55.33;102235.81;5097787;27;45409;-83
2022/05/06 06:54:40;;;;;;;;;24.00;19.33;;;;;15.46;55.49;102238.53;5097185;27;45361;-83
2022/05/06 06:57:06;;;;;;;;;23.67;18.67;;;;;15.95;55.15;102306.47;5097838;27;45434;-83
2022/05/06 06:59:31;;;;;;;;;19.67;19.67;;;;;15.20;55.21;102178.69;5097273;27;45615;-83
2022/05/06 07:01:56;;;;;;;;;25.33;21.33;;;;;16.03;55.40;102304.31;5079253;27;45552;-83
2022/05/06 07:04:22;;;;;;;;;26.33;18.00;;;;;16.25;54.99;102331.22;5097171;27;45404;-83
2022/05/06 07:12:15;;;;;;;;;21.33;19.67;;;;;16.00;54.92;102274.88;5097114;27;45427;-84
2022/05/06 07:14:40;;;;;;;;;23.33;21.00;;;;;16.31;54.74;102305.84;5097679;27;45255;-83
2022/05/06 07:17:06;;;;;;;;;27.00;20.67;;;;;16.53;54.60;102340.78;5097573;27;45345;-83
2022/05/06 07:19:35;;;;;;;;;22.67;22.00;;;;;15.91;54.82;102216.97;5078771;27;45398;-83
2022/05/06 07:22:00;;;;;;;;;17.67;17.00;;;;;16.56;54.75;102317.31;5097468;27;45629;-83
2022/05/06 07:24:25;;;;;;;;;25.00;24.00;;;;;16.76;54.06;102345.16;5078253;27;45433;-83
2022/05/06 07:26:52;;;;;;;;;21.33;21.33;;;;;16.53;54.35;102304.00;5097516;27;45302;-83
2022/05/06 07:29:19;;;;;;;;;20.00;18.67;;;;;16.53;54.20;102279.78;5096877;27;46166;-84
2022/05/06 07:31:45;;;;;;;;;24.00;24.00;;;;;16.97;54.28;102349.63;5096928;27;45603;-83
2022/05/06 07:34:11;;;;;;;;;28.33;24.00;;;;;17.02;54.21;102335.94;5097353;27;45448;-83
2022/05/06 07:36:41;;;;;;;;;26.67;22.00;;;;;17.10;53.87;102349.97;5079250;27;45531;-90
2022/05/06 07:39:14;;;;;;;;;26.67;23.00;;;;;17.03;53.61;102326.94;5078608;27;47024;-90
2022/05/06 07:41:40;;;;;;;;;25.00;22.67;;;;;17.23;53.66;102353.84;5097469;27;45318;-90
2022/05/06 07:44:07;;;;;;;;;20.00;17.33;;;;;17.29;53.61;102358.06;5078983;27;45376;-90
2022/05/06 07:46:33;;;;;;;;;24.67;20.67;;;;;17.35;53.82;102347.03;5078889;27;45567;-90
2022/05/06 07:48:59;;;;;;;;;27.33;22.67;;;;;16.68;53.26;102214.47;5097129;27;45431;-90
2022/05/06 07:51:24;;;;;;;;;20.00;18.33;;;;;16.98;53.23;102259.81;5097302;27;45206;-90
2022/05/06 07:53:52;;;;;;;;;28.33;21.67;;;;;17.48;52.90;102329.31;5097075;27;46017;-90
2022/05/06 07:56:18;;;;;;;;;22.00;18.33;;;;;16.88;52.73;102213.59;5080211;27;45404;-89
2022/05/06 07:58:43;;;;;;;;;23.33;19.33;;;;;17.33;53.10;102264.50;5082053;27;47354;-90
2022/05/06 08:01:11;;;;;;;;;19.67;17.00;;;;;17.65;52.96;102308.75;5100900;27;45503;-90
2022/05/06 08:06:20;;;;;;;;;21.00;19.67;;;;;17.34;52.62;102225.81;5100913;27;45348;-90
2022/05/06 08:08:45;;;;;;;;;23.33;21.00;;;;;17.90;52.37;102309.31;5100226;27;46021;-90
2022/05/06 08:11:11;;;;;;;;;20.00;16.00;;;;;17.49;51.84;102231.31;5082002;27;45519;-91
2022/05/06 08:13:36;;;;;;;;;20.67;18.67;;;;;18.05;52.17;102301.41;5100416;27;45540;-90
2022/05/06 08:16:02;;;;;;;;;21.67;20.67;;;;;17.82;51.31;102238.72;5082631;27;45338;-91
2022/05/06 08:18:28;;;;;;;;;19.33;17.00;;;;;18.31;51.98;102314.47;5081773;27;47161;-91
2022/05/06 08:20:54;;;;;;;;;18.67;16.00;;;;;18.51;51.84;102324.25;5081778;27;45328;-90
2022/05/06 08:23:21;;;;;;;;;25.67;22.00;;;;;18.64;51.34;102326.31;5100142;27;45377;-90
2022/05/06 08:25:47;;;;;;;;;18.33;16.33;;;;;18.19;51.02;102225.16;5100240;27;45389;-91
2022/05/06 08:28:13;;;;;;;;;14.33;14.00;;;;;18.91;51.00;102318.59;5100030;27;46101;-90
2022/05/06 08:30:40;;;;;;;;;26.67;19.00;;;;;18.57;50.50;102236.66;5081260;27;45582;-90
2022/05/06 08:33:06;;;;;;;;;19.67;19.00;;;;;18.84;50.62;102246.94;5081510;27;45451;-90
2022/05/06 08:35:32;;;;;;;;;13.00;13.00;;;;;19.49;49.88;102312.69;5081718;27;45324;-90
2022/05/06 08:37:58;;;;;;;;;13.67;12.00;;;;;19.80;49.36;102314.53;5081102;27;48207;-86
2022/05/06 08:40:31;;;;;;;;;14.33;14.00;;;;;19.90;47.47;102265.31;5099637;27;45495;-91
2022/05/06 08:42:57;;;;;;;;;9.00;9.00;;;;;20.49;46.53;102301.50;5099837;27;45416;-91
2022/05/06 08:51:13;;;;;;;;;9.33;8.67;;;;;23.10;42.27;102269.78;5038432;28;45421;-90
2022/05/06 08:53:40;;;;;;;;;9.67;8.67;;;;;23.77;40.63;102209.50;5036327;28;45511;-90
2022/05/06 08:56:05;;;;;;;;;10.67;9.33;;;;;25.08;39.75;102235.53;5036598;28;45476;-91
2022/05/06 08:58:35;;;;;;;;;14.00;9.00;;;;;26.55;37.32;102278.78;5019274;28;47180;-92
2022/05/06 09:01:07;;;;;;;;;11.00;11.00;;;;;27.16;35.67;102200.31;5019636;28;45771;-91
2022/05/06 09:03:37;;;;;;;;;8.00;8.00;;;;;28.63;34.12;102283.47;5019680;28;45500;-91
2022/05/06 09:06:03;;;;;;;;;8.67;7.67;;;;;29.05;32.68;102179.56;5019728;28;45597;-91
2022/05/06 09:08:42;;;;;;;;;7.00;6.00;;;;;30.25;32.04;102273.75;5017843;28;47321;-91
2022/05/06 09:11:11;;;;;;;;;4.67;4.67;;;;;30.48;31.50;102197.97;5019467;28;46076;-91
2022/05/06 09:13:37;;;;;;;;;7.67;6.00;;;;;31.26;29.90;102198.84;5036021;28;45420;-92
2022/05/06 09:16:41;;;;;;;;;4.00;4.00;;;;;32.23;29.09;102212.94;5036758;28;45481;-92
2022/05/06 09:19:20;;;;;;;;;4.67;3.67;;;;;33.32;27.43;102270.31;5036202;28;45333;-92
2022/05/06 09:22:00;;;;;;;;;4.67;4.67;;;;;33.96;27.34;102267.34;5052638;28;45889;-92
2022/05/06 09:24:29;;;;;;;;;3.67;3.67;;;;;34.33;25.68;102223.28;5060288;27;45465;-91
2022/05/06 09:26:59;;;;;;;;;3.00;3.00;;;;;35.14;25.15;102262.22;5060854;28;45522;-91
2022/05/06 09:29:44;;;;;;;;;6.00;5.00;;;;;35.43;25.26;102222.50;5060204;28;47099;-92
2022/05/06 09:32:26;;;;;;;;;5.33;4.00;;;;;36.27;23.78;102260.69;5060377;28;45466;-92
2022/05/06 09:34:52;;;;;;;;;5.00;3.00;;;;;36.85;22.54;102257.72;5060391;28;45291;-93
2022/05/06 09:37:34;;;;;;;;;3.00;3.00;;;;;37.40;22.54;102261.44;5060783;28;45431;-93
2022/05/06 09:40:04;;;;;;;;;3.00;2.00;;;;;37.93;22.25;102252.34;5060396;28;47122;-92
2022/05/06 09:42:30;;;;;;;;;2.67;2.00;;;;;38.41;20.76;102257.75;5060401;28;45263;-92
2022/05/06 09:44:55;;;;;;;;;1.67;1.67;;;;;38.78;20.40;102231.09;5060473;28;45438;-92
2022/05/06 09:47:21;;;;;;;;;4.00;4.00;;;;;38.85;19.51;102203.22;5060496;28;45472;-92
2022/05/06 09:49:49;;;;;;;;;6.00;5.00;;;;;38.36;19.33;102168.38;5060025;28;47140;-92
2022/05/06 09:52:15;;;;;;;;;3.00;3.00;;;;;38.47;18.87;102178.03;5060202;28;46287;-92
2022/05/06 09:54:44;;;;;;;;;4.67;4.67;;;;;38.96;18.57;102210.94;5060113;28;45512;-91
2022/05/06 09:57:15;;;;;;;;;4.33;3.33;;;;;39.90;18.40;102244.78;5068645;28;45538;-92
2022/05/06 09:59:40;;;;;;;;;3.67;3.67;;;;;39.29;18.34;102217.38;5078388;27;45422;-92
2022/05/06 10:02:08;;;;;;;;;2.67;2.67;;;;;39.30;19.11;102249.81;5060447;28;45503;-92
2022/05/06 10:04:35;;;;;;;;;3.00;3.00;;;;;40.27;17.20;102217.81;5076694;28;45338;-92
2022/05/06 10:07:01;;;;;;;;;2.00;2.00;;;;;41.42;16.70;102249.84;5078258;27;45280;-92
2022/05/06 10:09:29;;;;;;;;;3.33;3.33;;;;;42.02;15.74;102161.25;5076377;28;47955;-92
2022/05/06 10:11:58;;;;;;;;;2.00;2.00;;;;;43.60;14.84;102250.81;5059981;27;46095;-92
2022/05/06 10:14:25;;;;;;;;;4.00;4.00;;;;;44.27;14.55;102243.53;5076747;28;45436;-92
2022/05/06 10:16:50;;;;;;;;;3.00;3.00;;;;;44.90;12.50;102238.56;5077063;28;45591;-93
2022/05/06 10:19:45;;;;;;;;;4.33;3.00;;;;;44.92;13.73;102160.34;5075956;27;47969;-92
2022/05/06 10:22:10;;;;;;;;;3.00;3.00;;;;;45.80;11.99;102251.16;5079112;28;45422;-92
2022/05/06 10:24:40;;;;;;;;;6.33;2.33;;;;;45.82;13.16;102243.25;5077746;27;45319;-92
2022/05/06 10:32:25;;;;;;;;;5.33;4.00;;;;;45.79;13.14;102240.97;5060292;28;45527;-92
2022/05/06 10:33:13;;;;;;;;;3.00;3.00;;;;;44.94;13.02;102200.34;5076986;28;45280;-86
2022/05/06 10:35:41;;;;;;;;;4.00;3.00;;;;;44.55;13.67;102203.19;5077516;28;45349;-86
2022/05/06 10:38:29;;;;;;;;;3.00;3.00;;;;;43.86;13.98;102183.81;5077973;28;45479;-85
2022/05/06 10:41:02;;;;;;;;;2.00;2.00;;;;;43.75;14.42;102234.22;5075834;27;46350;-85
2022/05/06 10:43:39;;;;;;;;;3.67;3.67;;;;;43.55;14.70;102202.94;5058873;28;45634;-85
2022/05/06 10:46:05;;;;;;;;;3.00;2.00;;;;;43.62;14.53;102232.63;5076243;27;45392;-86
2022/05/06 10:48:30;;;;;;;;;2.33;2.33;;;;;42.99;14.12;102160.59;5058787;28;45448;-85
2022/05/06 10:51:21;;;;;;;;;3.00;3.00;;;;;42.12;15.31;102220.31;5077196;27;45571;-85
2022/05/06 10:53:47;;;;;;;;;4.00;4.00;;;;;40.84;14.93;102186.88;5072027;27;45518;-85
2022/05/06 10:56:13;;;;;;;;;2.67;2.67;;;;;40.15;15.26;102088.31;5075442;27;45586;-85
2022/05/06 10:58:38;;;;;;;;;3.67;3.67;;;;;40.41;16.10;102159.81;5077793;27;45515;-85
2022/05/06 11:01:04;;;;;;;;;4.33;4.33;;;;;39.98;15.84;102188.59;5076752;27;45666;-85
2022/05/06 11:03:29;;;;;;;;;5.67;5.67;;;;;39.61;16.08;102209.94;5075601;28;46040;-85
2022/05/06 11:05:54;;;;;;;;;5.00;5.00;;;;;38.80;16.79;102195.50;5077171;27;45470;-85
2022/05/06 11:08:31;;;;;;;;;13.33;12.33;;;;;38.89;16.98;102189.66;5076061;27;45506;-85
2022/05/06 11:10:56;;;;;;;;;3.67;3.33;;;;;37.58;17.29;102130.06;5075786;28;48247;-85
2022/05/06 11:13:25;;;;;;;;;5.00;5.00;;;;;37.19;17.40;102206.81;5077017;27;45388;-85
2022/05/06 11:15:50;;;;;;;;;7.33;5.67;;;;;37.12;17.86;102114.16;5075342;28;45314;-85
2022/05/06 11:18:18;;;;;;;;;9.00;6.00;;;;;38.29;17.38;102164.75;5075586;28;45496;-85
2022/05/06 11:20:44;;;;;;;;;21.67;13.00;;;;;38.16;17.13;102130.28;5075440;28;47960;-85
2022/05/06 11:23:11;;;;;;;;;4.00;3.00;;;;;37.12;17.87;102181.75;5076673;27;45419;-85
2022/05/06 11:25:44;;;;;;;;;2.33;2.33;;;;;35.69;18.61;102185.88;5076568;28;45411;-85
2022/05/06 11:28:16;;;;;;;;;2.33;2.33;;;;;34.75;20.05;102199.66;5075812;28;45333;-85
2022/05/06 11:30:46;;;;;;;;;4.00;3.33;;;;;34.03;20.50;102199.13;5076860;28;46264;-85
2022/05/06 11:33:31;;;;;;;;;4.67;4.67;;;;;33.54;20.99;102187.59;5080080;27;45523;-84
2022/05/06 11:36:02;;;;;;;;;3.00;3.00;;;;;33.43;21.20;102199.91;5080562;27;45207;-84
2022/05/06 11:38:35;;;;;;;;;3.67;3.00;;;;;33.13;21.74;102185.94;5080384;27;45503;-84
2022/05/06 11:41:10;;;;;;;;;3.33;3.33;;;;;32.38;21.94;102148.56;5080210;27;46055;-84
2022/05/06 11:43:37;;;;;;;;;3.00;3.00;;;;;32.18;21.54;102195.00;5079732;27;45541;-84
2022/05/06 11:48:47;;;;;;;;;2.00;2.00;;;;;31.03;23.25;102157.28;5080300;28;45464;-84